Terminal Aerodrome Forecast
Issued by NWS

Home | Current Version | Previous Version | Text Only | Print | Product List | Glossary On
Versions: 1 2 3 4 5 6 7 8 9 10 11 12
000
FTPA31 PHFO 051732
TAFHJH
TAF
PHJH 051732Z 0518/0618 04011KT P6SM FEW025 SCT050
     FM052000 12006KT P6SM FEW025 SCT050
      AMD NOT SKED 0604/0618=

USA.gov is the U.S. government's official web portal to all federal, state and local government web resources and services.